Terminal Aerodrome Forecast
Issued by NWS

Current Version | Previous Version | Text Only | Print | Product List | Glossary Off
Versions: 1 2 3 4 5 6 7 8 9 10 11 12 13 14 15 16 17

000
FTUS41 KPBZ 212127 AAB
TAFMGW
TAF AMD
KMGW 212127Z 2121/2218 25006KT P6SM SCT050
      TEMPO 2122/2123 3SM -TSRA BKN040CB
     FM220800 VRB03KT 3SM BR SCT100
     FM221200 23006KT P6SM SCT050=

USA.gov is the U.S. government's official web portal to all federal, state and local government web resources and services.